Time;durP1;ratioP1;P1;durP2;ratioP2;P2;SDS_P1;SDS_P2;PMS_P1;PMS_P2;Temp;Humidity;BMP_temperature;BMP_pressure;BME280_temperature;BME280_humidity;BME280_pressure;Samples;Min_cycle;Max_cycle;Signal;HPM_P1;HPM_P2
2023/03/13 00:00:09;;;;;;;0.10;0.10;;;;;;;17.76;50.14;100085.03;2108008;28;20103;-57
2023/03/13 00:01:14;;;;;;;0.10;0.10;;;;;;;17.77;50.61;100088.53;2106911;28;20048;-58
2023/03/13 00:02:17;;;;;;;0.10;0.10;;;;;;;17.75;50.45;100077.25;2107474;28;20527;-56
2023/03/13 00:03:19;;;;;;;0.10;0.10;;;;;;;17.73;50.36;100074.91;2112619;28;20561;-57
2023/03/13 00:04:22;;;;;;;0.10;0.10;;;;;;;17.75;50.55;100069.06;2108942;28;20091;-55
2023/03/13 00:05:24;;;;;;;0.10;0.10;;;;;;;17.75;50.47;100069.06;2108425;28;20134;-57
2023/03/13 00:06:32;;;;;;;0.10;0.10;;;;;;;17.74;50.21;100072.97;2105487;28;20056;-58
2023/03/13 00:07:33;;;;;;;0.10;0.10;;;;;;;17.74;50.42;100062.81;2103887;28;20114;-56
2023/03/13 00:08:37;;;;;;;0.10;0.10;;;;;;;17.75;50.26;100058.91;2097224;28;20131;-58
2023/03/13 00:09:39;;;;;;;0.10;0.10;;;;;;;17.75;50.44;100055.41;2097689;28;20044;-58
2023/03/13 00:10:41;;;;;;;0.10;0.10;;;;;;;17.75;50.42;100049.94;2104967;28;20052;-57
2023/03/13 00:11:46;;;;;;;0.10;0.10;;;;;;;17.75;50.51;100048.00;2112715;28;20055;-57
2023/03/13 00:12:47;;;;;;;0.10;0.10;;;;;;;17.74;50.38;100040.22;2107125;28;20049;-58
2023/03/13 00:13:54;;;;;;;0.00;0.00;;;;;;;17.75;50.42;100036.28;2106617;28;20056;-58
2023/03/13 00:14:56;;;;;;;0.10;0.10;;;;;;;17.74;50.39;100029.28;2115247;28;20083;-58
2023/03/13 00:16:00;;;;;;;0.10;0.10;;;;;;;17.75;50.57;100026.16;2110343;28;20048;-58
2023/03/13 00:17:02;;;;;;;0.10;0.10;;;;;;;17.73;50.26;100025.78;2109608;28;20108;-58
2023/03/13 00:18:07;;;;;;;0.10;0.10;;;;;;;17.73;50.36;100027.72;2108377;28;20032;-59
2023/03/13 00:19:11;;;;;;;0.03;0.03;;;;;;;17.74;50.63;100021.09;2109468;28;20053;-57
2023/03/13 00:20:16;;;;;;;0.10;0.10;;;;;;;17.73;50.28;100017.59;2108930;28;20055;-59
2023/03/13 00:21:21;;;;;;;0.10;0.10;;;;;;;17.74;50.41;100030.03;2107555;28;20053;-58
2023/03/13 00:22:24;;;;;;;0.08;0.08;;;;;;;17.73;50.60;100011.34;2111516;28;20036;-57
2023/03/13 00:23:28;;;;;;;0.10;0.10;;;;;;;17.72;50.44;100010.59;2105620;28;20123;-58
2023/03/13 00:24:32;;;;;;;0.10;0.10;;;;;;;17.73;50.45;100006.66;2106165;28;20048;-58
2023/03/13 00:25:34;;;;;;;0.10;0.10;;;;;;;17.73;50.48;100000.41;2100400;28;20045;-60
2023/03/13 00:26:37;;;;;;;0.10;0.10;;;;;;;17.72;50.46;100002.41;2102289;28;20056;-57
2023/03/13 00:27:39;;;;;;;0.08;0.08;;;;;;;17.72;50.41;99999.66;2106603;28;20501;-58
2023/03/13 00:28:43;;;;;;;0.10;0.10;;;;;;;17.73;50.38;100005.88;2102084;28;20052;-58
2023/03/13 00:29:47;;;;;;;0.10;0.10;;;;;;;17.72;50.58;100010.59;2103679;28;20466;-58
2023/03/13 00:30:50;;;;;;;0.10;0.10;;;;;;;17.73;50.39;99989.50;2098445;28;20079;-58
2023/03/13 00:31:52;;;;;;;0.10;0.10;;;;;;;17.73;50.59;99990.28;2100994;28;20052;-59
2023/03/13 00:32:55;;;;;;;0.10;0.10;;;;;;;17.71;50.42;99970.03;2101212;28;20051;-59
2023/03/13 00:33:59;;;;;;;0.10;0.10;;;;;;;17.73;50.54;99968.44;2104117;28;20082;-58
2023/03/13 00:35:02;;;;;;;0.10;0.10;;;;;;;17.73;50.47;99967.66;2098964;28;20083;-59
2023/03/13 00:36:10;;;;;;;0.10;0.10;;;;;;;17.73;50.25;99962.19;2099579;28;20048;-59
2023/03/13 00:37:13;;;;;;;0.10;0.10;;;;;;;17.71;50.31;99970.78;2101594;28;20117;-59
2023/03/13 00:38:16;;;;;;;0.10;0.10;;;;;;;17.66;50.48;99954.13;2101965;28;20555;-58
2023/03/13 00:39:20;;;;;;;0.10;0.10;;;;;;;17.73;50.33;99954.00;2105880;28;20052;-58
2023/03/13 00:40:22;;;;;;;0.10;0.10;;;;;;;17.72;50.22;99955.19;2103034;28;20092;-59
2023/03/13 00:41:27;;;;;;;0.10;0.10;;;;;;;17.73;50.39;99960.25;2096751;28;20049;-59
2023/03/13 00:42:29;;;;;;;0.10;0.10;;;;;;;17.71;50.19;99948.19;2097455;28;20226;-59
2023/03/13 00:43:33;;;;;;;0.10;0.10;;;;;;;17.73;50.58;99945.81;2102281;28;20075;-59
2023/03/13 00:44:35;;;;;;;0.10;0.10;;;;;;;17.72;50.63;99947.78;2104346;28;20040;-58
2023/03/13 00:45:38;;;;;;;0.10;0.10;;;;;;;17.72;50.33;99938.81;2101383;28;20470;-58
2023/03/13 00:46:40;;;;;;;0.10;0.10;;;;;;;17.72;50.57;99944.28;2100177;28;20061;-59
2023/03/13 00:47:42;;;;;;;0.10;0.10;;;;;;;17.72;50.35;99931.41;2102768;28;20060;-59
2023/03/13 00:48:45;;;;;;;0.10;0.10;;;;;;;17.72;50.38;99938.81;2104591;28;20079;-59
2023/03/13 00:49:49;;;;;;;0.10;0.10;;;;;;;17.73;50.32;99932.16;2104752;28;20490;-58
2023/03/13 00:50:51;;;;;;;0.00;0.00;;;;;;;17.72;50.15;99930.63;2101492;28;20052;-59
2023/03/13 00:51:54;;;;;;;0.10;0.10;;;;;;;17.72;50.49;99936.09;2083221;28;20053;-59
2023/03/13 00:52:56;;;;;;;0.10;0.10;;;;;;;17.71;50.48;99929.09;2086168;28;20053;-58
2023/03/13 00:54:02;;;;;;;0.10;0.10;;;;;;;17.73;50.42;99934.91;2093490;28;20052;-59
2023/03/13 00:55:06;;;;;;;0.10;0.10;;;;;;;17.73;50.20;99923.97;2096587;28;20390;-59
2023/03/13 00:56:11;;;;;;;0.10;0.10;;;;;;;17.69;50.51;99917.81;2104027;28;20056;-59
2023/03/13 00:57:13;;;;;;;0.10;0.10;;;;;;;17.70;50.48;99925.56;2104446;28;20063;-59
2023/03/13 00:58:16;;;;;;;0.10;0.10;;;;;;;17.71;50.41;99929.84;2099551;28;20486;-58
2023/03/13 00:59:18;;;;;;;0.10;0.10;;;;;;;17.71;50.17;99915.44;2097292;28;20450;-59
2023/03/13 01:00:21;;;;;;;0.10;0.10;;;;;;;17.71;50.47;99921.66;2096471;28;20095;-59
2023/03/13 01:01:31;;;;;;;0.10;0.10;;;;;;;17.68;50.69;99902.59;2094019;28;20581;-58
2023/03/13 01:02:41;;;;;;;0.10;0.10;;;;;;;17.69;50.44;99917.81;2089663;28;20071;-59
2023/03/13 01:03:46;;;;;;;0.10;0.10;;;;;;;17.66;50.47;99905.72;2092371;28;20502;-58
2023/03/13 01:04:49;;;;;;;0.10;0.10;;;;;;;17.68;50.58;99910.78;2103853;28;20040;-58
2023/03/13 01:05:56;;;;;;;0.10;0.10;;;;;;;17.70;50.53;99913.88;2104708;28;20051;-59
2023/03/13 01:07:00;;;;;;;0.10;0.10;;;;;;;17.68;50.77;99905.31;2097926;28;20497;-59
2023/03/13 01:08:03;;;;;;;0.10;0.10;;;;;;;17.69;50.24;99899.47;2102503;28;20056;-58
2023/03/13 01:09:09;;;;;;;0.10;0.10;;;;;;;17.70;50.41;99897.50;2104997;28;20417;-58
2023/03/13 01:10:11;;;;;;;0.10;0.10;;;;;;;17.67;50.32;99887.41;2101634;28;20949;-59
2023/03/13 01:11:17;;;;;;;0.10;0.10;;;;;;;17.69;50.44;99899.47;2097136;28;20459;-58
2023/03/13 01:12:19;;;;;;;0.10;0.10;;;;;;;17.68;50.46;99888.94;2098833;28;20058;-58
2023/03/13 01:13:21;;;;;;;0.10;0.10;;;;;;;17.68;50.31;99884.25;2097852;28;20127;-58
2023/03/13 01:14:25;;;;;;;0.03;0.03;;;;;;;17.69;50.69;99880.38;2100738;28;20405;-58
2023/03/13 01:15:28;;;;;;;0.03;0.03;;;;;;;17.70;50.43;99886.56;2104224;28;20517;-59
2023/03/13 01:16:33;;;;;;;0.10;0.10;;;;;;;17.70;50.72;99879.16;2105262;28;20055;-58
2023/03/13 01:17:35;;;;;;;0.10;0.10;;;;;;;17.68;50.58;99873.34;2101538;28;20497;-59
2023/03/13 01:18:39;;;;;;;0.10;0.10;;;;;;;17.70;50.50;99867.47;2097881;28;20135;-59
2023/03/13 01:19:43;;;;;;;0.10;0.10;;;;;;;17.68;50.49;99867.88;2095895;28;20609;-58
2023/03/13 01:20:45;;;;;;;0.10;0.10;;;;;;;17.68;50.39;99864.38;2096393;28;20620;-59
2023/03/13 01:21:49;;;;;;;0.10;0.10;;;;;;;17.68;50.54;99861.63;2101843;28;20048;-58
2023/03/13 01:22:51;;;;;;;0.10;0.10;;;;;;;17.68;50.17;99858.91;2102568;28;20197;-58
2023/03/13 01:23:54;;;;;;;0.10;0.10;;;;;;;17.70;50.26;99860.06;2102526;28;20126;-58
2023/03/13 01:25:00;;;;;;;0.10;0.10;;;;;;;17.70;50.52;99853.81;2105000;28;20461;-58
2023/03/13 01:26:05;;;;;;;0.10;0.10;;;;;;;17.68;50.43;99859.69;2099827;28;20094;-59
2023/03/13 01:27:07;;;;;;;0.10;0.10;;;;;;;17.68;50.48;99861.63;2102221;28;20055;-59
2023/03/13 01:28:11;;;;;;;0.10;0.10;;;;;;;17.68;50.69;99845.25;2096351;28;20151;-59
2023/03/13 01:29:13;;;;;;;0.10;0.10;;;;;;;17.69;50.30;99846.81;2096212;28;20045;-58
2023/03/13 01:30:16;;;;;;;0.10;0.10;;;;;;;17.70;50.57;99845.63;2101267;28;20619;-58
2023/03/13 01:31:20;;;;;;;0.10;0.10;;;;;;;17.67;50.35;99832.78;2095885;28;20726;-58
2023/03/13 01:32:23;;;;;;;0.10;0.10;;;;;;;17.67;50.50;99830.84;2096054;28;20056;-59
2023/03/13 01:33:26;;;;;;;0.10;0.10;;;;;;;17.69;50.39;99833.94;2098854;28;20049;-58
2023/03/13 01:34:29;;;;;;;0.10;0.10;;;;;;;17.67;50.65;99827.34;2097626;28;20800;-58
2023/03/13 01:35:32;;;;;;;0.10;0.10;;;;;;;17.68;50.47;99824.19;2094768;28;20413;-60
2023/03/13 01:36:36;;;;;;;0.10;0.10;;;;;;;17.69;50.39;99824.97;2096211;28;20544;-58
2023/03/13 01:37:39;;;;;;;0.10;0.10;;;;;;;17.68;50.32;99828.88;2098985;28;20056;-59
2023/03/13 01:38:41;;;;;;;0.10;0.10;;;;;;;17.60;50.43;99805.63;2094289;28;20417;-58
2023/03/13 01:39:45;;;;;;;0.10;0.10;;;;;;;17.68;50.49;99812.50;2087831;28;20168;-59
2023/03/13 01:40:49;;;;;;;0.10;0.10;;;;;;;17.69;50.14;99812.09;2087338;28;20097;-58
2023/03/13 01:41:52;;;;;;;0.10;0.10;;;;;;;17.68;50.39;99802.34;2085153;28;20085;-59
2023/03/13 01:42:57;;;;;;;0.05;0.05;;;;;;;17.69;50.28;99803.91;2087412;28;20510;-59
2023/03/13 01:44:02;;;;;;;0.10;0.10;;;;;;;17.67;50.26;99791.84;2080153;28;20106;-58
2023/03/13 01:45:44;;;;;;;0.10;0.10;;;;;;;17.58;50.57;99784.16;2088929;28;20141;-58
2023/03/13 01:46:47;;;;;;;0.10;0.10;;;;;;;17.60;50.45;99779.06;2104932;28;20527;-59
2023/03/13 01:48:08;;;;;;;0.10;0.10;;;;;;;17.60;50.49;99772.88;2090979;28;20049;-59
2023/03/13 01:49:23;;;;;;;0.10;0.10;;;;;;;17.61;50.69;99774.41;2086459;28;20093;-58
2023/03/13 01:50:43;;;;;;;0.10;0.10;;;;;;;17.59;50.62;99768.56;2089228;28;20040;-59
2023/03/13 01:51:58;;;;;;;0.10;0.10;;;;;;;17.61;50.60;99767.00;2097787;28;20600;-59
2023/03/13 01:53:00;;;;;;;0.10;0.10;;;;;;;17.62;50.61;99765.00;2094001;28;20049;-59
2023/03/13 01:54:09;;;;;;;0.10;0.10;;;;;;;17.62;50.08;99763.06;2088001;28;20052;-59
2023/03/13 01:55:16;;;;;;;0.10;0.10;;;;;;;17.62;50.76;99759.56;2081739;28;20072;-58
2023/03/13 01:56:28;;;;;;;0.10;0.10;;;;;;;17.60;50.52;99756.50;2092371;28;20071;-58
2023/03/13 01:57:34;;;;;;;0.10;0.10;;;;;;;17.61;50.55;99747.09;2096000;28;20053;-59
2023/03/13 01:58:38;;;;;;;0.10;0.10;;;;;;;17.60;50.61;99746.31;2092916;28;20048;-59
2023/03/13 01:59:44;;;;;;;0.10;0.10;;;;;;;17.62;50.71;99738.50;2088517;28;20057;-59
2023/03/13 02:00:48;;;;;;;0.10;0.10;;;;;;;17.62;50.35;99735.00;2080896;28;20105;-59
2023/03/13 02:01:54;;;;;;;0.10;0.10;;;;;;;17.63;50.54;99717.44;2095831;28;20080;-59
2023/03/13 02:03:02;;;;;;;0.03;0.03;;;;;;;17.62;50.41;99719.41;2092778;28;20624;-59
2023/03/13 02:04:08;;;;;;;0.10;0.10;;;;;;;17.60;50.66;99712.81;2088621;28;20482;-59
2023/03/13 02:05:12;;;;;;;0.05;0.05;;;;;;;17.62;50.39;99704.97;2087696;28;20053;-59
2023/03/13 02:06:16;;;;;;;0.10;0.10;;;;;;;17.62;50.69;99702.25;2094137;28;20044;-59
2023/03/13 02:07:24;;;;;;;0.10;0.10;;;;;;;17.62;50.59;99700.28;2097859;28;20056;-59
2023/03/13 02:08:35;;;;;;;0.10;0.10;;;;;;;17.61;50.64;99697.97;2101164;28;20123;-59
2023/03/13 02:09:40;;;;;;;0.10;0.10;;;;;;;17.61;50.40;99690.56;2094171;28;20048;-58
2023/03/13 02:10:49;;;;;;;0.10;0.10;;;;;;;17.62;50.42;99677.66;2088135;28;20053;-59
2023/03/13 02:12:00;;;;;;;0.10;0.10;;;;;;;17.59;50.66;99679.28;2089429;28;20053;-59
2023/03/13 02:13:02;;;;;;;0.10;0.10;;;;;;;17.60;50.62;99680.06;2094630;28;20127;-59
2023/03/13 02:14:06;;;;;;;0.10;0.10;;;;;;;17.61;50.58;99679.66;2087984;28;20518;-58
2023/03/13 02:15:12;;;;;;;0.03;0.03;;;;;;;17.62;50.80;99669.47;2094367;28;20091;-58
2023/03/13 02:16:16;;;;;;;0.10;0.10;;;;;;;17.62;50.65;99664.03;2095529;28;20060;-59
2023/03/13 02:17:23;;;;;;;0.10;0.10;;;;;;;17.61;50.73;99660.53;2098090;28;20052;-58
2023/03/13 02:18:26;;;;;;;0.10;0.10;;;;;;;17.62;50.34;99661.28;2097245;28;20421;-59
2023/03/13 02:19:37;;;;;;;0.08;0.08;;;;;;;17.62;50.74;99651.16;2097581;28;20056;-59
2023/03/13 02:20:40;;;;;;;0.10;0.10;;;;;;;17.61;50.59;99643.38;2093446;28;20063;-59
2023/03/13 02:21:53;;;;;;;0.05;0.05;;;;;;;17.61;50.67;99648.84;2094547;28;20053;-59
2023/03/13 02:23:02;;;;;;;0.10;0.10;;;;;;;17.60;50.77;99650.03;2095832;28;20052;-59
2023/03/13 02:24:14;;;;;;;0.10;0.10;;;;;;;17.59;50.31;99643.81;2099212;28;20052;-59
2023/03/13 02:25:29;;;;;;;0.05;0.05;;;;;;;17.58;50.67;99636.78;2093580;28;20056;-58
2023/03/13 02:26:33;;;;;;;0.10;0.10;;;;;;;17.57;50.69;99629.78;2087141;28;20086;-59
2023/03/13 02:27:35;;;;;;;0.10;0.10;;;;;;;17.60;50.67;99626.22;2087090;28;20628;-59
2023/03/13 02:28:39;;;;;;;0.00;0.00;;;;;;;17.60;50.25;99631.69;2089182;28;20045;-59
2023/03/13 02:29:46;;;;;;;0.08;0.08;;;;;;;17.61;50.70;99621.53;2087398;28;20049;-59
2023/03/13 02:30:52;;;;;;;0.10;0.10;;;;;;;17.62;50.78;99617.63;2085961;28;20048;-58
2023/03/13 02:31:55;;;;;;;0.10;0.10;;;;;;;17.61;50.67;99616.09;2095649;28;20544;-58
2023/03/13 02:32:57;;;;;;;0.10;0.10;;;;;;;17.62;50.58;99623.06;2087988;28;20561;-58
2023/03/13 02:34:01;;;;;;;0.10;0.10;;;;;;;17.62;50.75;99618.41;2092647;28;20456;-59
2023/03/13 02:35:07;;;;;;;0.10;0.10;;;;;;;17.63;50.40;99600.06;2100398;28;20139;-59
2023/03/13 02:36:13;;;;;;;0.10;0.10;;;;;;;17.62;50.67;99599.28;2093331;28;20059;-58
2023/03/13 02:37:16;;;;;;;0.08;0.08;;;;;;;17.62;50.47;99606.69;2087347;28;20052;-59
2023/03/13 02:38:23;;;;;;;0.05;0.05;;;;;;;17.64;50.73;99607.06;2085726;28;20087;-59
2023/03/13 02:39:28;;;;;;;0.10;0.10;;;;;;;17.63;50.63;99605.53;2088409;28;20049;-59
2023/03/13 02:40:37;;;;;;;0.10;0.10;;;;;;;17.62;50.29;99595.78;2094566;28;20127;-58
2023/03/13 02:41:41;;;;;;;0.00;0.00;;;;;;;17.61;50.65;99592.31;2095489;28;20098;-58
2023/03/13 02:42:45;;;;;;;0.10;0.10;;;;;;;17.63;50.68;99586.44;2093470;28;20414;-58
2023/03/13 02:43:48;;;;;;;0.08;0.08;;;;;;;17.62;50.55;99590.31;2086138;28;20052;-59
2023/03/13 02:44:52;;;;;;;0.00;0.00;;;;;;;17.62;50.69;99584.88;2087836;28;20051;-59
2023/03/13 02:46:02;;;;;;;0.10;0.10;;;;;;;17.59;50.59;99575.56;2094216;28;20047;-59
2023/03/13 02:47:08;;;;;;;0.10;0.10;;;;;;;17.61;50.76;99569.69;2095814;28;20060;-58
2023/03/13 02:48:11;;;;;;;0.10;0.10;;;;;;;17.61;50.42;99566.97;2097497;28;20866;-58
2023/03/13 02:49:22;;;;;;;0.10;0.10;;;;;;;17.60;50.47;99555.25;2100570;28;20052;-58
2023/03/13 02:50:24;;;;;;;0.13;0.13;;;;;;;17.58;50.83;99557.63;2095625;28;20052;-58
2023/03/13 02:51:33;;;;;;;0.10;0.10;;;;;;;17.61;50.33;99551.34;2086696;28;20053;-58
2023/03/13 02:52:40;;;;;;;0.10;0.10;;;;;;;17.62;50.57;99552.09;2076014;28;20053;-59
2023/03/13 02:53:47;;;;;;;0.10;0.10;;;;;;;17.60;50.66;99547.06;2071885;28;20061;-59
2023/03/13 02:54:57;;;;;;;0.10;0.10;;;;;;;17.58;50.85;99535.03;2080338;28;20049;-59
2023/03/13 02:56:04;;;;;;;0.05;0.05;;;;;;;17.60;50.50;99538.13;2087384;28;20084;-59
2023/03/13 02:57:06;;;;;;;0.08;0.08;;;;;;;17.59;50.56;99531.91;2086907;28;20398;-58
2023/03/13 02:58:09;;;;;;;0.10;0.10;;;;;;;17.61;50.52;99528.75;2093441;28;20460;-59
2023/03/13 02:59:11;;;;;;;0.10;0.10;;;;;;;17.62;50.61;99530.28;2098188;28;20098;-59
2023/03/13 03:00:19;;;;;;;0.03;0.03;;;;;;;17.61;50.60;99528.75;2095070;28;20048;-58
2023/03/13 03:01:21;;;;;;;0.00;0.00;;;;;;;17.61;50.54;99524.06;2082847;28;20049;-59
2023/03/13 03:02:24;;;;;;;0.00;0.00;;;;;;;17.61;50.58;99528.75;2089270;28;20084;-59
2023/03/13 03:03:27;;;;;;;0.00;0.00;;;;;;;17.62;50.47;99522.09;2089704;28;20060;-59
2023/03/13 03:04:31;;;;;;;0.00;0.00;;;;;;;17.61;50.46;99517.81;2085138;28;20451;-59
2023/03/13 03:05:32;;;;;;;0.10;0.10;;;;;;;17.61;50.62;99501.44;2090847;28;20129;-58
2023/03/13 03:06:36;;;;;;;0.10;0.10;;;;;;;17.63;50.42;99510.00;2101181;28;20048;-58
2023/03/13 03:07:38;;;;;;;0.10;0.10;;;;;;;17.62;50.63;99511.16;2102211;28;20549;-58
2023/03/13 03:08:42;;;;;;;0.05;0.05;;;;;;;17.63;50.39;99501.81;2094865;28;20044;-59
2023/03/13 03:09:46;;;;;;;0.03;0.03;;;;;;;17.61;50.50;99504.97;2095927;28;20044;-59
2023/03/13 03:10:53;;;;;;;0.10;0.10;;;;;;;17.61;50.62;99485.06;2091407;28;20044;-58
2023/03/13 03:11:58;;;;;;;0.10;0.10;;;;;;;17.62;50.53;99492.84;2082592;28;20119;-58
2023/03/13 03:13:03;;;;;;;0.08;0.08;;;;;;;17.61;50.60;99496.00;2087638;28;20067;-60
2023/03/13 03:14:06;;;;;;;0.00;0.00;;;;;;;17.62;50.79;99492.06;2089930;28;20620;-59
2023/03/13 03:15:13;;;;;;;0.10;0.10;;;;;;;17.60;50.72;99484.28;2101808;28;20508;-61
2023/03/13 03:16:19;;;;;;;0.00;0.00;;;;;;;17.58;50.65;99472.28;2088725;28;20130;-61
2023/03/13 03:17:22;;;;;;;0.00;0.00;;;;;;;17.61;50.48;99476.88;2091314;28;20127;-61
2023/03/13 03:18:24;;;;;;;0.10;0.10;;;;;;;17.61;50.79;99474.16;2102969;28;20948;-61
2023/03/13 03:19:27;;;;;;;0.08;0.08;;;;;;;17.62;50.28;99475.69;2094871;28;20040;-59
2023/03/13 03:20:29;;;;;;;0.10;0.10;;;;;;;17.62;50.58;99472.97;2095442;28;20049;-60
2023/03/13 03:21:33;;;;;;;0.08;0.08;;;;;;;17.62;50.59;99472.97;2091736;28;20062;-59
2023/03/13 03:22:37;;;;;;;0.10;0.10;;;;;;;17.62;50.83;99468.28;2094292;28;20424;-58
2023/03/13 03:23:40;;;;;;;0.10;0.10;;;;;;;17.61;50.59;99469.47;2104356;28;20105;-59
2023/03/13 03:24:42;;;;;;;0.10;0.10;;;;;;;17.62;50.47;99470.22;2089490;28;20427;-62
2023/03/13 03:25:45;;;;;;;0.10;0.10;;;;;;;17.62;50.48;99465.53;2094949;28;20045;-59
2023/03/13 03:26:47;;;;;;;0.08;0.08;;;;;;;17.62;50.65;99464.78;2092310;28;20541;-59
2023/03/13 03:28:01;;;;;;;0.10;0.10;;;;;;;17.61;50.89;99463.25;2086231;28;20063;-59
2023/03/13 03:29:03;;;;;;;0.00;0.00;;;;;;;17.59;50.56;99460.94;2084899;28;20094;-59
2023/03/13 03:30:07;;;;;;;0.10;0.10;;;;;;;17.59;50.69;99455.47;2094344;28;20497;-60
2023/03/13 03:31:13;;;;;;;0.08;0.08;;;;;;;17.62;50.45;99462.03;2088127;28;20124;-59
2023/03/13 03:32:16;;;;;;;0.05;0.05;;;;;;;17.61;50.80;99471.44;2087159;28;20053;-58
2023/03/13 03:33:18;;;;;;;0.10;0.10;;;;;;;17.60;50.56;99467.16;2095372;28;20087;-58
2023/03/13 03:34:21;;;;;;;0.10;0.10;;;;;;;17.59;50.42;99465.63;2094665;28;20052;-59
2023/03/13 03:35:24;;;;;;;0.08;0.08;;;;;;;17.61;50.55;99463.25;2095964;28;20095;-59
2023/03/13 03:36:27;;;;;;;0.05;0.05;;;;;;;17.62;50.63;99456.59;2100519;28;20044;-59
2023/03/13 03:37:29;;;;;;;0.05;0.05;;;;;;;17.60;50.76;99448.81;2088078;28;20067;-59
2023/03/13 03:38:34;;;;;;;0.10;0.10;;;;;;;17.62;50.92;99448.38;2084583;28;20057;-56
2023/03/13 03:39:37;;;;;;;0.08;0.08;;;;;;;17.61;50.74;99450.38;2072914;28;20469;-59
2023/03/13 03:40:40;;;;;;;0.08;0.08;;;;;;;17.60;50.29;99445.34;2071797;28;20084;-59
2023/03/13 03:41:43;;;;;;;0.10;0.10;;;;;;;17.61;50.57;99446.88;2076933;28;20052;-58
2023/03/13 03:42:45;;;;;;;0.00;0.00;;;;;;;17.61;50.46;99446.88;2076383;28;20130;-59
2023/03/13 03:43:49;;;;;;;0.00;0.00;;;;;;;17.62;50.56;99442.94;2086722;28;20418;-58
2023/03/13 03:44:55;;;;;;;0.08;0.08;;;;;;;17.60;50.65;99440.63;2086162;28;20486;-59
2023/03/13 03:45:58;;;;;;;0.10;0.10;;;;;;;17.61;50.70;99430.50;2089285;28;20109;-59
2023/03/13 03:47:01;;;;;;;0.08;0.08;;;;;;;17.61;50.57;99441.41;2087328;28;20056;-59
2023/03/13 03:48:09;;;;;;;0.05;0.05;;;;;;;17.59;50.80;99441.81;2078775;28;20098;-59
2023/03/13 03:49:11;;;;;;;0.10;0.10;;;;;;;17.60;50.59;99437.16;2082053;28;20434;-59
2023/03/13 03:50:14;;;;;;;0.10;0.10;;;;;;;17.61;50.70;99438.69;2087608;28;20456;-59
2023/03/13 03:51:26;;;;;;;0.10;0.10;;;;;;;17.58;50.78;99436.78;2085749;28;20418;-59
2023/03/13 03:52:30;;;;;;;0.10;0.10;;;;;;;17.59;50.39;99432.84;2086813;28;20053;-59
2023/03/13 03:53:32;;;;;;;0.10;0.10;;;;;;;17.59;50.67;99430.13;2095947;28;20414;-58
2023/03/13 03:54:35;;;;;;;0.10;0.10;;;;;;;17.59;50.51;99425.44;2086947;28;20045;-59
2023/03/13 03:55:37;;;;;;;0.10;0.10;;;;;;;17.60;50.62;99429.72;2086923;28;20049;-59
2023/03/13 03:56:40;;;;;;;0.10;0.10;;;;;;;17.60;50.81;99432.44;2094554;28;20052;-59
2023/03/13 03:57:42;;;;;;;0.00;0.00;;;;;;;17.60;50.73;99426.22;2095062;28;20098;-59
2023/03/13 03:58:51;;;;;;;0.10;0.10;;;;;;;17.60;50.69;99434.41;2082135;28;20049;-59
2023/03/13 04:00:19;;;;;;;0.10;0.10;;;;;;;17.54;51.12;99422.44;2080335;28;20123;-59
2023/03/13 04:01:26;;;;;;;0.10;0.10;;;;;;;17.54;51.11;99423.22;2093155;28;20143;-59
2023/03/13 04:02:29;;;;;;;0.10;0.10;;;;;;;17.56;50.77;99422.78;2085814;28;20147;-59
2023/03/13 04:03:31;;;;;;;0.10;0.10;;;;;;;17.57;50.73;99413.41;2078443;28;20045;-59
2023/03/13 04:04:34;;;;;;;0.10;0.10;;;;;;;17.57;50.67;99414.19;2084575;28;20125;-59
2023/03/13 04:05:41;;;;;;;0.10;0.10;;;;;;;17.56;50.40;99407.19;2086796;28;20052;-59
2023/03/13 04:06:45;;;;;;;0.10;0.10;;;;;;;17.57;50.67;99407.94;2086196;28;20052;-59
2023/03/13 04:07:47;;;;;;;0.00;0.00;;;;;;;17.57;50.46;99406.00;2086401;28;20052;-59
2023/03/13 04:08:50;;;;;;;0.10;0.10;;;;;;;17.57;50.90;99403.25;2086049;28;20510;-59
2023/03/13 04:09:55;;;;;;;0.05;0.05;;;;;;;17.57;50.88;99391.56;2083833;28;20049;-59
2023/03/13 04:11:09;;;;;;;0.10;0.10;;;;;;;17.55;51.07;99396.69;2081987;28;20557;-59
2023/03/13 04:12:14;;;;;;;0.10;0.10;;;;;;;17.56;50.70;99400.94;2077153;28;20063;-60
2023/03/13 04:13:20;;;;;;;0.08;0.08;;;;;;;17.55;50.85;99386.53;2069556;28;20374;-58
2023/03/13 04:14:24;;;;;;;0.10;0.10;;;;;;;17.57;50.75;99408.72;2079830;28;20053;-59
2023/03/13 04:15:27;;;;;;;0.10;0.10;;;;;;;17.57;50.72;99408.72;2094399;28;20048;-59
2023/03/13 04:16:30;;;;;;;0.10;0.10;;;;;;;17.57;50.62;99410.66;2082796;28;20119;-59
2023/03/13 04:17:34;;;;;;;0.10;0.10;;;;;;;17.57;50.85;99391.56;2079188;28;20062;-59
2023/03/13 04:18:36;;;;;;;0.10;0.10;;;;;;;17.57;50.79;99407.94;2073138;28;20049;-59
2023/03/13 04:19:39;;;;;;;0.10;0.10;;;;;;;17.57;50.98;99391.56;2070933;28;20470;-59
2023/03/13 04:20:41;;;;;;;0.10;0.10;;;;;;;17.57;50.82;99391.56;2078659;28;20046;-59
2023/03/13 04:21:45;;;;;;;0.10;0.10;;;;;;;17.58;50.93;99390.41;2067618;28;20053;-59
2023/03/13 04:22:51;;;;;;;0.10;0.10;;;;;;;17.57;50.76;99397.03;2066975;28;20860;-59
2023/03/13 04:23:53;;;;;;;0.10;0.10;;;;;;;17.58;50.93;99398.59;2078374;28;20136;-58
2023/03/13 04:24:57;;;;;;;0.10;0.10;;;;;;;17.57;50.88;99388.84;2084512;28;20522;-59
2023/03/13 04:26:01;;;;;;;0.10;0.10;;;;;;;17.57;50.43;99392.34;2084598;28;20430;-60
2023/03/13 04:27:05;;;;;;;0.10;0.10;;;;;;;17.58;50.85;99390.41;2071147;28;20057;-59
2023/03/13 04:28:07;;;;;;;0.10;0.10;;;;;;;17.58;50.73;99377.50;2078074;28;20106;-60
2023/03/13 04:29:15;;;;;;;0.10;0.10;;;;;;;17.56;50.86;99379.91;2073064;28;20058;-59
2023/03/13 04:30:27;;;;;;;0.10;0.10;;;;;;;17.56;50.74;99387.31;2077617;28;20479;-60
2023/03/13 04:31:49;;;;;;;0.10;0.10;;;;;;;17.52;50.97;99376.47;2085084;28;20048;-58
2023/03/13 04:32:54;;;;;;;0.10;0.10;;;;;;;17.54;50.87;99370.56;2089009;28;20049;-60
2023/03/13 04:34:14;;;;;;;0.10;0.10;;;;;;;17.52;51.11;99367.53;2086148;28;20049;-59
2023/03/13 04:35:34;;;;;;;0.10;0.10;;;;;;;17.49;51.05;99380.03;2087277;28;20502;-59
2023/03/13 04:37:10;;;;;;;0.10;0.10;;;;;;;17.47;51.02;99374.22;2081972;28;20116;-59
2023/03/13 04:38:13;;;;;;;0.10;0.10;;;;;;;17.50;51.03;99367.16;2086224;28;20127;-59
2023/03/13 04:39:50;;;;;;;0.10;0.10;;;;;;;17.47;51.03;99368.03;2071085;28;20136;-59
2023/03/13 04:41:09;;;;;;;0.10;0.10;;;;;;;17.46;51.00;99363.72;2056938;28;20046;-59
2023/03/13 04:42:29;;;;;;;0.10;0.10;;;;;;;17.46;51.22;99355.53;2075772;28;20110;-59
2023/03/13 04:43:41;;;;;;;0.10;0.10;;;;;;;17.46;51.10;99353.59;2098039;28;20448;-59
2023/03/13 04:44:52;;;;;;;0.10;0.10;;;;;;;17.48;51.04;99355.91;2098970;28;20052;-59
2023/03/13 04:46:12;;;;;;;0.10;0.10;;;;;;;17.48;51.14;99355.91;2092733;28;20056;-59
2023/03/13 04:47:33;;;;;;;0.10;0.10;;;;;;;17.43;51.03;99359.88;2089760;28;20410;-59
2023/03/13 04:48:55;;;;;;;0.10;0.10;;;;;;;17.43;51.07;99365.31;2061534;28;20063;-60
2023/03/13 04:50:08;;;;;;;0.10;0.10;;;;;;;17.43;51.36;99353.63;2093484;28;20121;-59
2023/03/13 04:51:46;;;;;;;0.10;0.10;;;;;;;17.41;50.91;99356.03;2071423;28;20138;-59
2023/03/13 04:53:06;;;;;;;0.10;0.10;;;;;;;17.42;51.40;99350.16;2070044;28;20507;-58
2023/03/13 04:54:38;;;;;;;0.10;0.10;;;;;;;17.40;51.26;99347.06;2076500;28;20081;-59
2023/03/13 04:56:00;;;;;;;0.10;0.10;;;;;;;17.40;51.01;99349.03;2095168;28;20056;-58
2023/03/13 04:57:19;;;;;;;0.10;0.10;;;;;;;17.41;51.59;99350.56;2095874;28;20082;-58
2023/03/13 04:58:42;;;;;;;0.03;0.03;;;;;;;17.40;51.23;99346.28;2091754;28;20379;-58
2023/03/13 05:00:00;;;;;;;0.10;0.10;;;;;;;17.40;51.30;99338.88;2093601;28;20048;-58
2023/03/13 05:01:19;;;;;;;0.10;0.10;;;;;;;17.41;51.42;99328.75;2096562;28;20054;-58
2023/03/13 05:02:40;;;;;;;0.10;0.10;;;;;;;17.40;51.30;99343.56;2096077;28;20106;-58
2023/03/13 05:03:58;;;;;;;0.10;0.10;;;;;;;17.38;51.54;99324.91;2094943;28;20060;-58
2023/03/13 05:05:19;;;;;;;0.00;0.00;;;;;;;17.38;51.40;99340.47;2093737;28;20052;-58
2023/03/13 05:06:25;;;;;;;0.20;0.20;;;;;;;17.41;51.24;99328.75;2089730;28;20098;-59
2023/03/13 05:07:40;;;;;;;0.00;0.00;;;;;;;17.42;51.06;99338.47;2089696;28;20414;-59
2023/03/13 05:09:05;;;;;;;0.00;0.00;;;;;;;17.39;51.28;99326.44;2083164;28;20048;-59
2023/03/13 05:10:37;;;;;;;0.10;0.10;;;;;;;17.38;51.34;99310.47;2088917;28;20049;-59
2023/03/13 05:11:50;;;;;;;0.03;0.03;;;;;;;17.40;51.19;99327.19;2092825;28;20049;-58